Time;durP1;ratioP1;P1;durP2;ratioP2;P2;SDS_P1;SDS_P2;PMS_P1;PMS_P2;Temp;Humidity;BMP_temperature;BMP_pressure;BME280_temperature;BME280_humidity;BME280_pressure;Samples;Min_cycle;Max_cycle;Signal;HPM_P1;HPM_P2
2022/06/09 00:00:10;;;;;;;1.33;0.70;;;;;22.30;99716.00;;;;2064994;28;20237;-57
2022/06/09 00:01:49;;;;;;;0.90;0.80;;;;;22.30;99728.00;;;;2062894;28;20236;-60
2022/06/09 00:02:51;;;;;;;1.00;0.68;;;;;22.30;99711.00;;;;2065123;28;20214;-58
2022/06/09 00:03:54;;;;;;;0.93;0.80;;;;;22.30;99716.00;;;;2055112;28;20239;-55
2022/06/09 00:04:54;;;;;;;1.20;0.68;;;;;22.30;99724.00;;;;2069980;28;20268;-55
2022/06/09 00:05:55;;;;;;;1.33;0.80;;;;;22.40;99722.00;;;;2070579;28;20206;-57
2022/06/09 00:06:58;;;;;;;1.57;1.00;;;;;22.30;99722.00;;;;2070872;28;20216;-57
2022/06/09 00:07:59;;;;;;;1.30;0.90;;;;;22.30;99727.00;;;;2061696;28;20285;-58
2022/06/09 00:09:00;;;;;;;1.40;0.80;;;;;22.30;99728.00;;;;2054660;28;20223;-58
2022/06/09 00:10:07;;;;;;;1.38;0.80;;;;;22.30;99720.00;;;;2054835;28;20219;-58
2022/06/09 00:11:10;;;;;;;1.58;1.02;;;;;22.30;99730.00;;;;2062123;28;20225;-58
2022/06/09 00:12:10;;;;;;;1.05;0.70;;;;;22.30;99738.00;;;;2053066;28;20214;-58
2022/06/09 00:13:11;;;;;;;1.27;0.70;;;;;22.30;99724.00;;;;2074526;28;20218;-57
2022/06/09 00:14:11;;;;;;;1.00;0.83;;;;;22.30;99735.00;;;;2070726;28;20571;-57
2022/06/09 00:15:13;;;;;;;1.07;0.90;;;;;22.30;99733.00;;;;2062056;28;20215;-57
2022/06/09 00:16:14;;;;;;;1.10;0.80;;;;;22.30;99732.00;;;;2062256;28;20240;-57
2022/06/09 00:17:14;;;;;;;0.90;0.60;;;;;22.30;99739.00;;;;2062510;28;20215;-61
2022/06/09 00:18:15;;;;;;;2.80;1.10;;;;;22.30;99739.00;;;;2059906;28;20654;-59
2022/06/09 00:19:16;;;;;;;0.87;0.70;;;;;22.30;99740.00;;;;2068393;28;20288;-57
2022/06/09 00:20:17;;;;;;;1.70;0.73;;;;;22.30;99742.00;;;;2073641;28;20213;-59
2022/06/09 00:21:17;;;;;;;1.42;0.80;;;;;22.30;99736.00;;;;2086892;28;20212;-59
2022/06/09 00:22:18;;;;;;;1.30;0.80;;;;;22.30;99743.00;;;;2079726;28;20216;-57
2022/06/09 00:23:19;;;;;;;1.03;0.70;;;;;22.30;99736.00;;;;2075445;28;20209;-60
2022/06/09 00:24:19;;;;;;;1.00;0.73;;;;;22.30;99735.00;;;;2056949;28;20608;-59
2022/06/09 00:25:19;;;;;;;1.03;0.90;;;;;22.30;99739.00;;;;2057654;28;20372;-60
2022/06/09 00:26:20;;;;;;;1.20;0.80;;;;;22.30;99741.00;;;;2071699;28;20279;-59
2022/06/09 00:27:20;;;;;;;1.30;1.00;;;;;22.30;99736.00;;;;2078790;28;20209;-59
2022/06/09 00:28:20;;;;;;;1.07;0.70;;;;;22.30;99742.00;;;;2071962;28;20221;-57
2022/06/09 00:29:21;;;;;;;1.93;0.80;;;;;22.30;99733.00;;;;2062479;28;20281;-59
2022/06/09 00:30:21;;;;;;;1.50;0.90;;;;;22.30;99730.00;;;;2077778;28;20214;-62
2022/06/09 00:31:21;;;;;;;0.90;0.70;;;;;22.30;99734.00;;;;2074752;28;20206;-59
2022/06/09 00:32:22;;;;;;;1.53;0.80;;;;;22.30;99744.00;;;;2070731;28;20222;-57
2022/06/09 00:33:22;;;;;;;1.63;0.93;;;;;22.30;99748.00;;;;2074306;28;20212;-59
2022/06/09 00:34:22;;;;;;;0.90;0.70;;;;;22.30;99742.00;;;;2070655;28;20875;-57
2022/06/09 00:35:23;;;;;;;1.17;0.80;;;;;22.30;99752.00;;;;2075973;28;20213;-62
2022/06/09 00:36:23;;;;;;;1.20;0.70;;;;;22.30;99747.00;;;;2079416;28;20335;-56
2022/06/09 00:37:23;;;;;;;1.47;0.90;;;;;22.30;99742.00;;;;2075578;28;20263;-60
2022/06/09 00:38:24;;;;;;;1.33;0.97;;;;;22.30;99748.00;;;;2074964;28;20209;-58
2022/06/09 00:39:24;;;;;;;1.53;1.00;;;;;22.30;99753.00;;;;2074860;28;20690;-57
2022/06/09 00:40:24;;;;;;;1.40;0.90;;;;;22.30;99743.00;;;;2071240;28;20630;-58
2022/06/09 00:41:25;;;;;;;1.10;0.80;;;;;22.30;99741.00;;;;2070053;28;20660;-61
2022/06/09 00:42:26;;;;;;;0.93;0.60;;;;;22.30;99755.00;;;;2066525;28;20698;-60
2022/06/09 00:43:27;;;;;;;1.00;0.80;;;;;22.30;99756.00;;;;2077293;28;20838;-58
2022/06/09 00:44:28;;;;;;;0.87;0.60;;;;;22.30;99746.00;;;;2076330;28;20209;-56
2022/06/09 00:45:33;;;;;;;1.15;0.90;;;;;22.30;99752.00;;;;2075371;28;20222;-58
2022/06/09 00:46:33;;;;;;;0.90;0.70;;;;;22.30;99744.00;;;;2070632;28;20234;-56
2022/06/09 00:47:33;;;;;;;1.47;0.90;;;;;22.30;99751.00;;;;2065990;28;20224;-56
2022/06/09 00:48:52;;;;;;;0.70;0.60;;;;;22.30;99755.00;;;;2065173;28;20214;-58
2022/06/09 00:50:00;;;;;;;1.77;1.10;;;;;22.30;99756.00;;;;2077510;28;20305;-61
2022/06/09 00:51:11;;;;;;;1.75;0.70;;;;;22.30;99713.00;;;;2076973;28;20240;-57
2022/06/09 00:52:14;;;;;;;1.40;0.90;;;;;22.30;99759.00;;;;2069640;28;20221;-57
2022/06/09 00:53:17;;;;;;;1.20;0.90;;;;;22.30;99759.00;;;;2069275;28;20210;-58
2022/06/09 00:54:20;;;;;;;1.10;0.70;;;;;22.30;99767.00;;;;2060836;28;20215;-57
2022/06/09 00:55:22;;;;;;;2.35;0.90;;;;;22.30;99757.00;;;;2059913;28;20664;-58
2022/06/09 00:56:22;;;;;;;1.15;0.90;;;;;22.30;99764.00;;;;2059993;28;20249;-59
2022/06/09 00:57:37;;;;;;;1.70;1.00;;;;;22.30;99762.00;;;;2060392;28;20207;-59
2022/06/09 00:58:38;;;;;;;0.93;0.80;;;;;22.30;99760.00;;;;2070670;28;20276;-57
2022/06/09 00:59:40;;;;;;;2.17;0.90;;;;;22.30;99759.00;;;;2060543;28;20715;-58
2022/06/09 01:00:48;;;;;;;1.60;0.85;;;;;22.30;99759.00;;;;2052940;28;20463;-57
2022/06/09 01:01:48;;;;;;;1.48;0.75;;;;;22.30;99765.00;;;;2068586;28;20245;-58
2022/06/09 01:02:48;;;;;;;1.17;0.90;;;;;22.30;99756.00;;;;2077043;28;20233;-58
2022/06/09 01:03:56;;;;;;;1.63;0.83;;;;;22.30;99762.00;;;;2077160;28;20209;-58
2022/06/09 01:04:56;;;;;;;1.25;0.95;;;;;22.30;99763.00;;;;2076353;28;20240;-57
2022/06/09 01:06:10;;;;;;;1.90;0.93;;;;;22.30;99771.00;;;;2077433;28;20669;-58
2022/06/09 01:07:16;;;;;;;1.10;0.80;;;;;22.30;99771.00;;;;2068843;28;20213;-57
2022/06/09 01:08:17;;;;;;;2.38;0.77;;;;;22.30;99769.00;;;;2062902;28;20293;-57
2022/06/09 01:09:20;;;;;;;1.37;0.70;;;;;22.30;99770.00;;;;2069145;28;20583;-58
2022/06/09 01:10:20;;;;;;;1.15;0.80;;;;;22.30;99776.00;;;;2076806;28;20225;-57
2022/06/09 01:11:21;;;;;;;1.10;0.90;;;;;22.30;99774.00;;;;2076513;28;20987;-57
2022/06/09 01:12:41;;;;;;;1.30;0.75;;;;;22.30;99777.00;;;;2076482;28;20209;-58
2022/06/09 01:13:42;;;;;;;1.95;0.90;;;;;22.30;99777.00;;;;2077054;28;20247;-57
2022/06/09 01:14:42;;;;;;;1.30;0.80;;;;;22.30;99773.00;;;;2076898;28;20761;-57
2022/06/09 01:16:08;;;;;;;1.30;0.90;;;;;22.30;99784.00;;;;2077043;28;20210;-57
2022/06/09 01:17:29;;;;;;;1.23;0.80;;;;;22.30;99785.00;;;;2076752;28;20213;-58
2022/06/09 01:18:42;;;;;;;1.10;0.88;;;;;22.30;99779.00;;;;2071453;28;20274;-57
2022/06/09 01:20:20;;;;;;;2.22;1.00;;;;;22.30;99784.00;;;;2077011;28;20262;-58
2022/06/09 01:22:08;;;;;;;1.17;0.95;;;;;22.30;99779.00;;;;2075843;28;20217;-57
2022/06/09 01:23:44;;;;;;;1.63;0.90;;;;;22.30;99776.00;;;;2076844;28;20276;-58
2022/06/09 01:24:56;;;;;;;1.40;0.85;;;;;22.30;99785.00;;;;2078078;28;20702;-57
2022/06/09 01:26:17;;;;;;;1.70;0.80;;;;;22.30;99779.00;;;;2079210;28;20570;-60
2022/06/09 01:27:40;;;;;;;0.95;0.65;;;;;22.30;99776.00;;;;2080339;28;20221;-58
2022/06/09 01:28:46;;;;;;;1.40;0.82;;;;;22.30;99788.00;;;;2079775;28;20740;-58
2022/06/09 01:30:06;;;;;;;1.15;0.80;;;;;22.30;99787.00;;;;2072801;28;20288;-58
2022/06/09 01:31:24;;;;;;;0.95;0.70;;;;;22.30;99779.00;;;;2078880;28;20386;-57
2022/06/09 01:32:30;;;;;;;1.10;0.60;;;;;22.30;99778.00;;;;2080718;28;20267;-58
2022/06/09 01:33:55;;;;;;;1.50;0.80;;;;;22.30;99784.00;;;;2080610;28;20604;-57
2022/06/09 01:35:04;;;;;;;1.60;1.00;;;;;22.30;99783.00;;;;2080082;28;20216;-58
2022/06/09 01:36:09;;;;;;;1.33;0.98;;;;;22.30;99790.00;;;;2064084;28;20211;-58
2022/06/09 01:37:23;;;;;;;1.67;0.73;;;;;22.30;99795.00;;;;2065509;28;20215;-57
2022/06/09 01:38:23;;;;;;;1.65;0.98;;;;;22.30;99793.00;;;;2065381;28;20673;-57
2022/06/09 01:39:28;;;;;;;1.90;0.90;;;;;22.30;99783.00;;;;2073064;28;20237;-58
2022/06/09 01:40:28;;;;;;;1.75;0.90;;;;;22.30;99783.00;;;;2080586;28;20221;-58
2022/06/09 01:41:28;;;;;;;1.23;0.70;;;;;22.30;99792.00;;;;2079098;28;21609;-61
2022/06/09 01:42:34;;;;;;;1.00;0.70;;;;;22.30;99791.00;;;;2078877;28;20221;-60
2022/06/09 01:43:34;;;;;;;1.25;0.80;;;;;22.30;99786.00;;;;2080567;28;20219;-58
2022/06/09 01:44:34;;;;;;;1.10;0.80;;;;;22.30;99795.00;;;;2079844;28;20650;-57
2022/06/09 01:46:05;;;;;;;1.23;1.03;;;;;22.30;99787.00;;;;2079472;28;20722;-57
2022/06/09 01:47:05;;;;;;;1.50;1.10;;;;;22.30;99793.00;;;;2079484;28;20218;-57
2022/06/09 01:48:10;;;;;;;1.20;0.90;;;;;22.30;99783.00;;;;2072006;28;20214;-58
2022/06/09 01:49:14;;;;;;;1.38;0.90;;;;;22.30;99795.00;;;;2072421;28;20205;-57
2022/06/09 01:50:23;;;;;;;1.08;0.80;;;;;22.30;99778.00;;;;2056051;28;20810;-57
2022/06/09 01:51:23;;;;;;;1.08;0.80;;;;;22.30;99796.00;;;;2066192;28;20222;-57
2022/06/09 01:52:23;;;;;;;1.07;0.70;;;;;22.30;99796.00;;;;2071984;28;20213;-57
2022/06/09 01:53:35;;;;;;;1.23;0.77;;;;;22.30;99788.00;;;;2063964;28;20218;-57
2022/06/09 01:54:36;;;;;;;1.98;1.00;;;;;22.30;99793.00;;;;2072674;28;20221;-57
2022/06/09 01:55:41;;;;;;;1.03;0.63;;;;;22.30;99804.00;;;;2064409;28;20631;-57
2022/06/09 01:56:56;;;;;;;0.90;0.60;;;;;22.30;99803.00;;;;2056791;28;20594;-57
2022/06/09 01:57:57;;;;;;;1.67;0.80;;;;;22.30;99799.00;;;;2067972;28;20237;-58
2022/06/09 01:59:01;;;;;;;1.90;0.70;;;;;22.30;99799.00;;;;2071736;28;20244;-57
2022/06/09 02:00:13;;;;;;;2.10;0.98;;;;;22.30;99803.00;;;;2063690;28;20635;-60
2022/06/09 02:01:13;;;;;;;1.23;0.90;;;;;22.30;99805.00;;;;2067170;28;20585;-57
2022/06/09 02:02:24;;;;;;;1.20;0.70;;;;;22.30;99811.00;;;;2063692;28;20221;-58
2022/06/09 02:03:27;;;;;;;1.35;0.82;;;;;22.30;99810.00;;;;2073016;28;20248;-57
2022/06/09 02:04:32;;;;;;;1.30;0.75;;;;;22.30;99801.00;;;;2071240;28;20655;-57
2022/06/09 02:05:43;;;;;;;1.20;0.90;;;;;22.30;99810.00;;;;2070082;28;20229;-61
2022/06/09 02:06:44;;;;;;;0.90;0.80;;;;;22.30;99822.00;;;;2066220;28;20735;-57
2022/06/09 02:07:44;;;;;;;1.83;1.00;;;;;22.30;99810.00;;;;2078989;28;20283;-58
2022/06/09 02:08:46;;;;;;;1.20;0.70;;;;;22.30;99807.00;;;;2079191;28;20283;-59
2022/06/09 02:09:46;;;;;;;1.90;0.80;;;;;22.30;99841.00;;;;2062524;28;20307;-57
2022/06/09 02:10:48;;;;;;;1.17;0.93;;;;;22.30;99811.00;;;;2063121;28;20210;-58
2022/06/09 02:11:50;;;;;;;1.60;0.55;;;;;22.30;99817.00;;;;2071240;28;20221;-57
2022/06/09 02:12:50;;;;;;;1.00;0.70;;;;;22.30;99820.00;;;;2079004;28;20624;-58
2022/06/09 02:13:51;;;;;;;1.00;0.80;;;;;22.30;99819.00;;;;2079616;28;20327;-57
2022/06/09 02:14:53;;;;;;;0.90;0.60;;;;;22.30;99818.00;;;;2071096;28;20229;-58
2022/06/09 02:16:00;;;;;;;1.10;0.85;;;;;22.30;99821.00;;;;2071065;28;20449;-57
2022/06/09 02:17:00;;;;;;;1.02;0.75;;;;;22.30;99818.00;;;;2062846;28;20210;-57
2022/06/09 02:18:04;;;;;;;1.73;1.00;;;;;22.30;99818.00;;;;2062830;28;20802;-58
2022/06/09 02:19:05;;;;;;;1.30;0.80;;;;;22.30;99813.00;;;;2071690;28;20214;-58
2022/06/09 02:20:06;;;;;;;1.50;0.75;;;;;22.30;99820.00;;;;2087433;28;20306;-58
2022/06/09 02:21:12;;;;;;;2.53;0.80;;;;;22.30;99822.00;;;;2080070;28;20647;-57
2022/06/09 02:22:12;;;;;;;1.40;0.80;;;;;22.30;99823.00;;;;2079407;28;20218;-58
2022/06/09 02:23:13;;;;;;;1.30;0.80;;;;;22.30;99817.00;;;;2079651;28;20247;-57
2022/06/09 02:24:13;;;;;;;1.67;0.80;;;;;22.30;99823.00;;;;2070818;28;20202;-58
2022/06/09 02:25:13;;;;;;;1.27;0.80;;;;;22.30;99824.00;;;;2071220;28;20242;-57
2022/06/09 02:26:14;;;;;;;1.33;0.90;;;;;22.30;99822.00;;;;2079025;28;20209;-58
2022/06/09 02:27:15;;;;;;;2.03;0.90;;;;;22.30;99823.00;;;;2078367;28;20719;-58
2022/06/09 02:28:15;;;;;;;1.67;0.80;;;;;22.30;99821.00;;;;2079423;28;20216;-57
2022/06/09 02:29:15;;;;;;;1.50;0.70;;;;;22.30;99826.00;;;;2079270;28;20202;-57
2022/06/09 02:30:16;;;;;;;1.23;0.67;;;;;22.30;99831.00;;;;2079406;28;20205;-58
2022/06/09 02:31:18;;;;;;;1.10;0.77;;;;;22.30;99824.00;;;;2079800;28;20213;-57
2022/06/09 02:32:18;;;;;;;2.50;1.08;;;;;22.30;99829.00;;;;2069935;28;20249;-58
2022/06/09 02:33:19;;;;;;;1.10;0.80;;;;;22.30;99820.00;;;;2071338;28;21191;-57
2022/06/09 02:34:19;;;;;;;1.03;0.70;;;;;22.30;99829.00;;;;2079606;28;20649;-57
2022/06/09 02:35:19;;;;;;;1.77;1.07;;;;;22.20;99836.00;;;;2078165;28;20232;-58
2022/06/09 02:36:20;;;;;;;1.03;0.60;;;;;22.30;99832.00;;;;2078279;28;20205;-58
2022/06/09 02:37:20;;;;;;;1.10;0.80;;;;;22.30;99829.00;;;;2078415;28;20228;-58
2022/06/09 02:38:21;;;;;;;1.00;0.80;;;;;22.30;99833.00;;;;2078466;28;20214;-58
2022/06/09 02:39:21;;;;;;;1.27;0.70;;;;;22.30;99837.00;;;;2078958;28;20232;-58
2022/06/09 02:40:21;;;;;;;1.63;0.70;;;;;22.30;99840.00;;;;2078907;28;20312;-58
2022/06/09 02:41:22;;;;;;;1.27;0.80;;;;;22.30;99840.00;;;;2078237;28;20721;-57
2022/06/09 02:42:22;;;;;;;1.83;0.93;;;;;22.30;99838.00;;;;2069371;28;20218;-58
2022/06/09 02:43:23;;;;;;;1.30;0.90;;;;;22.30;99834.00;;;;2078393;28;20225;-57
2022/06/09 02:44:23;;;;;;;1.70;0.90;;;;;22.30;99828.00;;;;2076980;28;20247;-57
2022/06/09 02:45:23;;;;;;;2.03;0.80;;;;;22.30;99836.00;;;;2058316;28;20832;-58
2022/06/09 02:46:24;;;;;;;1.70;0.83;;;;;22.30;99832.00;;;;2070201;28;20748;-57
2022/06/09 02:47:24;;;;;;;1.00;0.67;;;;;22.30;99828.00;;;;2071155;28;20625;-58
2022/06/09 02:48:25;;;;;;;1.63;0.80;;;;;22.30;99827.00;;;;2071063;28;20222;-58
2022/06/09 02:49:26;;;;;;;0.87;0.60;;;;;22.30;99833.00;;;;2070231;28;20622;-58
2022/06/09 02:50:26;;;;;;;1.30;0.70;;;;;22.30;99832.00;;;;2070268;28;20218;-58
2022/06/09 02:51:32;;;;;;;0.90;0.70;;;;;22.30;99834.00;;;;2070764;28;20581;-58
2022/06/09 02:52:32;;;;;;;1.25;0.70;;;;;22.30;99837.00;;;;2077245;28;20240;-58
2022/06/09 02:53:33;;;;;;;1.27;0.70;;;;;22.30;99828.00;;;;2078133;28;20260;-58
2022/06/09 02:54:33;;;;;;;1.00;0.80;;;;;22.20;99830.00;;;;2079110;28;20685;-58
2022/06/09 02:55:33;;;;;;;0.90;0.70;;;;;22.30;99808.00;;;;2077765;28;20734;-57
2022/06/09 02:56:34;;;;;;;1.60;1.00;;;;;22.20;99841.00;;;;2069709;28;20222;-57
2022/06/09 02:57:34;;;;;;;1.00;0.60;;;;;22.20;99833.00;;;;2078369;28;20225;-57
2022/06/09 02:58:34;;;;;;;1.43;0.80;;;;;22.00;99839.00;;;;2078941;28;20221;-57
2022/06/09 02:59:35;;;;;;;1.10;0.57;;;;;22.20;99830.00;;;;2079116;28;20228;-58
2022/06/09 03:00:35;;;;;;;1.63;0.80;;;;;22.30;99841.00;;;;2077137;28;20209;-57
2022/06/09 03:01:36;;;;;;;1.20;0.80;;;;;22.30;99843.00;;;;2058696;28;20246;-58
2022/06/09 03:02:37;;;;;;;1.30;0.90;;;;;22.30;99840.00;;;;2069993;28;20924;-58
2022/06/09 03:03:38;;;;;;;1.50;0.77;;;;;22.30;99829.00;;;;2071010;28;20221;-58
2022/06/09 03:04:38;;;;;;;1.10;0.87;;;;;22.30;99840.00;;;;2070922;28;20214;-58
2022/06/09 03:05:39;;;;;;;2.03;0.80;;;;;22.30;99828.00;;;;2077785;28;20566;-58
2022/06/09 03:06:39;;;;;;;1.23;0.77;;;;;22.20;99837.00;;;;2078503;28;20599;-57
2022/06/09 03:07:39;;;;;;;1.60;0.87;;;;;22.20;99843.00;;;;2078725;28;20678;-58
2022/06/09 03:08:40;;;;;;;3.23;0.90;;;;;22.20;99839.00;;;;2078791;28;20320;-57
2022/06/09 03:09:40;;;;;;;2.07;0.90;;;;;22.20;99841.00;;;;2078807;28;20218;-57
2022/06/09 03:10:41;;;;;;;1.17;0.77;;;;;22.20;99836.00;;;;2078789;28;20217;-57
2022/06/09 03:11:41;;;;;;;1.60;0.80;;;;;22.20;99837.00;;;;2078577;28;20232;-57
2022/06/09 03:12:42;;;;;;;0.80;0.70;;;;;22.20;99833.00;;;;2078850;28;20213;-58
2022/06/09 03:13:42;;;;;;;1.00;0.70;;;;;22.20;99841.00;;;;2078441;28;20210;-61
2022/06/09 03:14:43;;;;;;;0.93;0.67;;;;;22.30;99842.00;;;;2078676;28;20736;-57
2022/06/09 03:15:47;;;;;;;1.33;0.80;;;;;22.30;99843.00;;;;2078431;28;20241;-58
2022/06/09 03:16:47;;;;;;;1.45;0.80;;;;;22.20;99848.00;;;;2078951;28;20210;-58
2022/06/09 03:17:48;;;;;;;1.70;0.80;;;;;22.30;99849.00;;;;2078739;28;20205;-58
2022/06/09 03:18:48;;;;;;;1.20;0.73;;;;;22.30;99857.00;;;;2077874;28;20216;-57
2022/06/09 03:19:48;;;;;;;0.90;0.70;;;;;22.20;99855.00;;;;2078231;28;20714;-57
2022/06/09 03:20:49;;;;;;;1.63;0.93;;;;;22.30;99857.00;;;;2076750;28;20789;-57
2022/06/09 03:21:49;;;;;;;1.17;0.70;;;;;22.20;99854.00;;;;2078048;28;20937;-57
2022/06/09 03:22:50;;;;;;;1.70;0.90;;;;;22.30;99860.00;;;;2078451;28;20213;-58
2022/06/09 03:23:51;;;;;;;1.40;0.70;;;;;22.30;99860.00;;;;2078784;28;20288;-58
2022/06/09 03:24:51;;;;;;;1.60;0.90;;;;;22.30;99858.00;;;;2078614;28;20217;-58
2022/06/09 03:25:52;;;;;;;1.20;0.70;;;;;22.30;99862.00;;;;2071016;28;20313;-58
2022/06/09 03:26:52;;;;;;;1.17;0.73;;;;;22.30;99858.00;;;;2072021;28;20218;-57
2022/06/09 03:27:53;;;;;;;0.90;0.70;;;;;22.30;99863.00;;;;2077056;28;20226;-58
2022/06/09 03:28:53;;;;;;;1.40;0.60;;;;;22.30;99860.00;;;;2078454;28;20591;-58
2022/06/09 03:29:53;;;;;;;1.20;0.63;;;;;22.20;99851.00;;;;2078240;28;20202;-58
2022/06/09 03:30:55;;;;;;;1.57;0.90;;;;;22.20;99860.00;;;;2078043;28;20217;-57
2022/06/09 03:31:56;;;;;;;1.80;0.85;;;;;22.20;99858.00;;;;2077376;28;20217;-58
2022/06/09 03:32:56;;;;;;;1.70;0.80;;;;;22.30;99866.00;;;;2077579;28;20328;-57
2022/06/09 03:33:57;;;;;;;1.00;0.70;;;;;22.20;99865.00;;;;2078402;28;20748;-58
2022/06/09 03:34:57;;;;;;;1.10;0.87;;;;;22.20;99861.00;;;;2077163;28;20222;-57
2022/06/09 03:35:58;;;;;;;1.80;0.70;;;;;22.20;99861.00;;;;2078297;28;20709;-58
2022/06/09 03:36:58;;;;;;;1.40;0.70;;;;;22.20;99864.00;;;;2077652;28;20279;-58
2022/06/09 03:37:59;;;;;;;1.27;0.70;;;;;22.20;99864.00;;;;2069905;28;20265;-58
2022/06/09 03:38:59;;;;;;;1.20;0.67;;;;;22.20;99869.00;;;;2078149;28;20220;-57
2022/06/09 03:39:59;;;;;;;1.90;0.73;;;;;22.20;99868.00;;;;2078278;28;20228;-58
2022/06/09 03:41:00;;;;;;;0.90;0.60;;;;;22.20;99871.00;;;;2078612;28;20210;-58
2022/06/09 03:42:00;;;;;;;1.40;0.70;;;;;22.20;99864.00;;;;2078463;28;20214;-58
2022/06/09 03:43:03;;;;;;;1.73;0.80;;;;;22.20;99871.00;;;;2078416;28;20275;-58
2022/06/09 03:44:04;;;;;;;1.20;0.70;;;;;22.20;99878.00;;;;2078001;28;20213;-58
2022/06/09 03:45:05;;;;;;;1.00;0.67;;;;;22.20;99882.00;;;;2078568;28;20658;-58
2022/06/09 03:46:05;;;;;;;1.57;0.77;;;;;22.20;99882.00;;;;2077724;28;20563;-57
2022/06/09 03:47:06;;;;;;;1.00;0.80;;;;;22.20;99879.00;;;;2077996;28;20633;-57
2022/06/09 03:48:06;;;;;;;1.17;0.60;;;;;22.20;99873.00;;;;2069793;28;20221;-57
2022/06/09 03:49:06;;;;;;;1.33;0.70;;;;;22.20;99873.00;;;;2078062;28;20299;-56
2022/06/09 03:50:08;;;;;;;1.17;0.70;;;;;22.20;99875.00;;;;2078607;28;20296;-57
2022/06/09 03:51:11;;;;;;;1.45;0.70;;;;;22.20;99885.00;;;;2070575;28;20364;-58
2022/06/09 03:52:11;;;;;;;1.73;0.80;;;;;22.20;99874.00;;;;2068926;28;20330;-58
2022/06/09 03:53:11;;;;;;;1.57;0.80;;;;;22.20;99881.00;;;;2069098;28;20889;-58
2022/06/09 03:54:13;;;;;;;1.27;0.70;;;;;22.20;99881.00;;;;2069062;28;20214;-57
2022/06/09 03:55:14;;;;;;;1.20;0.60;;;;;22.20;99888.00;;;;2068902;28;20232;-57
2022/06/09 03:56:16;;;;;;;0.93;0.60;;;;;22.20;99885.00;;;;2074385;28;20280;-58
2022/06/09 03:57:18;;;;;;;1.10;0.70;;;;;22.20;99887.00;;;;2078293;28;20225;-57
2022/06/09 03:58:18;;;;;;;1.30;0.70;;;;;22.20;99881.00;;;;2066664;28;20222;-58
2022/06/09 03:59:18;;;;;;;2.20;1.33;;;;;22.20;99879.00;;;;2069151;28;20266;-57
2022/06/09 04:00:24;;;;;;;1.10;0.60;;;;;22.20;99880.00;;;;2072018;28;20221;-57
2022/06/09 04:01:24;;;;;;;1.70;0.80;;;;;22.20;99884.00;;;;2076260;28;20302;-57
2022/06/09 04:02:24;;;;;;;1.10;0.67;;;;;22.20;99882.00;;;;2077700;28;20220;-58
2022/06/09 04:03:25;;;;;;;1.50;0.80;;;;;22.20;99884.00;;;;2076780;28;20627;-57
2022/06/09 04:04:25;;;;;;;1.23;0.70;;;;;22.20;99891.00;;;;2078108;28;20210;-57
2022/06/09 04:05:26;;;;;;;1.00;0.70;;;;;22.20;99895.00;;;;2070058;28;20222;-57
2022/06/09 04:06:27;;;;;;;0.90;0.65;;;;;22.20;99898.00;;;;2069962;28;20214;-57
2022/06/09 04:07:27;;;;;;;1.70;0.93;;;;;22.20;99898.00;;;;2070864;28;20301;-56
2022/06/09 04:08:28;;;;;;;1.03;0.57;;;;;22.20;99898.00;;;;2070908;28;20575;-57
2022/06/09 04:09:28;;;;;;;1.50;0.70;;;;;22.20;99903.00;;;;2068958;28;20268;-56
2022/06/09 04:10:30;;;;;;;1.17;0.77;;;;;22.20;99898.00;;;;2068949;28;20222;-57
2022/06/09 04:11:32;;;;;;;1.80;0.85;;;;;22.20;99900.00;;;;2074300;28;20252;-57
2022/06/09 04:12:32;;;;;;;1.55;0.90;;;;;22.20;99902.00;;;;2077284;28;20304;-55
2022/06/09 04:13:33;;;;;;;1.50;0.70;;;;;22.20;99902.00;;;;2073716;28;20218;-56
2022/06/09 04:14:33;;;;;;;1.73;0.70;;;;;22.20;99904.00;;;;2074029;28;20276;-56
2022/06/09 04:15:34;;;;;;;1.13;0.87;;;;;22.20;99905.00;;;;2076603;28;20214;-57
2022/06/09 04:16:38;;;;;;;1.90;0.93;;;;;22.20;99904.00;;;;2078092;28;20214;-56
2022/06/09 04:17:39;;;;;;;0.70;0.60;;;;;22.20;99912.00;;;;2075795;28;20224;-55
2022/06/09 04:18:39;;;;;;;1.63;0.70;;;;;22.20;99908.00;;;;2066090;28;20218;-56
2022/06/09 04:19:40;;;;;;;1.90;0.90;;;;;22.20;99914.00;;;;2077474;28;20221;-57
2022/06/09 04:20:40;;;;;;;1.13;0.70;;;;;22.20;99920.00;;;;2077254;28;20222;-56
2022/06/09 04:21:41;;;;;;;1.27;0.70;;;;;22.20;99913.00;;;;2073552;28;20709;-56
2022/06/09 04:22:41;;;;;;;1.77;0.90;;;;;22.20;99924.00;;;;2069111;28;21051;-55
2022/06/09 04:23:41;;;;;;;1.30;0.80;;;;;22.20;99924.00;;;;2069452;28;20225;-55
2022/06/09 04:24:42;;;;;;;1.20;0.60;;;;;22.20;99931.00;;;;2070670;28;20229;-60
2022/06/09 04:25:42;;;;;;;1.30;0.67;;;;;22.20;99922.00;;;;2074248;28;20213;-56
2022/06/09 04:26:43;;;;;;;1.00;0.70;;;;;22.20;99924.00;;;;2078501;28;20214;-57
2022/06/09 04:27:44;;;;;;;1.10;0.70;;;;;22.20;99928.00;;;;2070546;28;20745;-59
2022/06/09 04:28:44;;;;;;;1.20;0.80;;;;;22.20;99926.00;;;;2073427;28;20222;-59
2022/06/09 04:29:45;;;;;;;1.63;0.80;;;;;22.20;99933.00;;;;2074692;28;20412;-56
2022/06/09 04:30:46;;;;;;;1.23;0.70;;;;;22.20;99925.00;;;;2074998;28;20233;-57
2022/06/09 04:31:46;;;;;;;1.50;0.90;;;;;22.20;99936.00;;;;2073787;28;20293;-56
2022/06/09 04:32:47;;;;;;;1.60;0.80;;;;;22.20;99927.00;;;;2074856;28;20297;-55
2022/06/09 04:33:48;;;;;;;1.60;0.73;;;;;22.20;99933.00;;;;2074164;28;20210;-56
2022/06/09 04:34:49;;;;;;;2.03;0.90;;;;;22.20;99930.00;;;;2071872;28;20585;-56
2022/06/09 04:35:49;;;;;;;1.70;0.70;;;;;22.20;99932.00;;;;2078888;28;20218;-57
2022/06/09 04:36:50;;;;;;;1.80;0.80;;;;;22.20;99932.00;;;;2078889;28;20213;-59
2022/06/09 04:37:59;;;;;;;1.20;0.63;;;;;22.20;99932.00;;;;2077693;28;20248;-55
2022/06/09 04:39:00;;;;;;;1.58;0.77;;;;;22.20;99928.00;;;;2070360;28;20453;-59
2022/06/09 04:40:01;;;;;;;1.52;0.90;;;;;22.20;99936.00;;;;2063005;28;20227;-56
2022/06/09 04:41:03;;;;;;;1.00;0.60;;;;;22.20;99938.00;;;;2061639;28;20226;-60
2022/06/09 04:42:03;;;;;;;1.95;0.85;;;;;22.20;99935.00;;;;2069561;28;20632;-58
2022/06/09 04:43:05;;;;;;;1.13;0.80;;;;;22.20;99933.00;;;;2071724;28;20229;-58
2022/06/09 04:44:05;;;;;;;1.70;0.90;;;;;22.20;99936.00;;;;2070783;28;20237;-58
2022/06/09 04:45:06;;;;;;;1.27;0.80;;;;;22.20;99937.00;;;;2069318;28;20249;-58
2022/06/09 04:46:08;;;;;;;1.10;0.80;;;;;22.20;99944.00;;;;2069684;28;20202;-55
2022/06/09 04:47:08;;;;;;;1.23;0.60;;;;;22.20;99943.00;;;;2069750;28;20214;-57
2022/06/09 04:48:09;;;;;;;1.33;0.93;;;;;22.20;99952.00;;;;2076993;28;20209;-56
2022/06/09 04:49:10;;;;;;;1.65;0.90;;;;;22.20;99944.00;;;;2069827;28;20214;-57
2022/06/09 04:50:10;;;;;;;1.00;0.70;;;;;22.20;99946.00;;;;2069350;28;20218;-58
2022/06/09 04:51:12;;;;;;;1.40;0.90;;;;;22.20;99945.00;;;;2077971;28;20206;-58
2022/06/09 04:52:12;;;;;;;1.05;0.60;;;;;22.20;99957.00;;;;2074722;28;20926;-58
2022/06/09 04:53:12;;;;;;;1.67;1.00;;;;;22.20;99963.00;;;;2065376;28;20218;-58
2022/06/09 04:54:13;;;;;;;1.00;0.80;;;;;22.20;99954.00;;;;2069531;28;20214;-58
2022/06/09 04:55:13;;;;;;;1.00;0.70;;;;;22.20;99957.00;;;;2078231;28;20213;-58
2022/06/09 04:56:14;;;;;;;2.43;0.80;;;;;22.20;99956.00;;;;2076974;28;20259;-57
2022/06/09 04:57:14;;;;;;;1.07;0.70;;;;;22.20;99957.00;;;;2077642;28;20225;-58
2022/06/09 04:58:15;;;;;;;1.20;0.70;;;;;22.20;99958.00;;;;2076192;28;21091;-58
2022/06/09 04:59:15;;;;;;;1.43;0.73;;;;;22.20;99954.00;;;;2078263;28;20641;-58
2022/06/09 05:00:16;;;;;;;1.10;0.70;;;;;22.20;99960.00;;;;2077779;28;20579;-57
2022/06/09 05:01:19;;;;;;;1.87;0.90;;;;;22.20;99960.00;;;;2078199;28;20210;-58
2022/06/09 05:02:19;;;;;;;1.45;0.85;;;;;22.20;99961.00;;;;2077285;28;20725;-57
2022/06/09 05:03:20;;;;;;;1.43;0.80;;;;;22.20;99960.00;;;;2077133;28;20213;-58
2022/06/09 05:04:20;;;;;;;3.10;0.90;;;;;22.20;99961.00;;;;2078025;28;20351;-58
2022/06/09 05:05:26;;;;;;;1.30;0.73;;;;;22.20;99961.00;;;;2076516;28;20693;-58
2022/06/09 05:06:27;;;;;;;2.92;1.17;;;;;22.20;99968.00;;;;2077965;28;20217;-57
2022/06/09 05:07:28;;;;;;;1.30;0.87;;;;;22.20;99958.00;;;;2078220;28;20225;-57
2022/06/09 05:08:28;;;;;;;1.17;0.80;;;;;22.20;99956.00;;;;2078218;28;20275;-57
2022/06/09 05:09:29;;;;;;;1.33;0.83;;;;;22.20;99961.00;;;;2078115;28;20367;-57
2022/06/09 05:10:29;;;;;;;1.27;0.70;;;;;22.20;99962.00;;;;2077971;28;20217;-58
2022/06/09 05:11:30;;;;;;;1.93;0.83;;;;;22.20;99971.00;;;;2078314;28;20753;-58
2022/06/09 05:12:30;;;;;;;1.10;0.80;;;;;22.20;99972.00;;;;2078144;28;20222;-58
2022/06/09 05:13:31;;;;;;;1.63;0.80;;;;;22.20;99967.00;;;;2077882;28;20214;-58
2022/06/09 05:14:31;;;;;;;1.00;0.80;;;;;22.20;99971.00;;;;2077284;28;20222;-58